Time;durP1;ratioP1;P1;durP2;ratioP2;P2;SDS_P1;SDS_P2;PMS_P1;PMS_P2;Temp;Humidity;BMP_temperature;BMP_pressure;BME280_temperature;BME280_humidity;BME280_pressure;Samples;Min_cycle;Max_cycle;Signal;HPM_P1;HPM_P2
2023/05/20 00:00:57;;;;;;;9.00;8.30;;;;;;;9.85;100.00;102932.50;5033766;28;20486;-45
2023/05/20 00:03:25;;;;;;;8.30;7.70;;;;;;;9.80;100.00;102940.03;5034051;28;20456;-45
2023/05/20 00:05:53;;;;;;;9.53;8.73;;;;;;;9.79;100.00;102927.72;5034091;28;20440;-44
2023/05/20 00:08:22;;;;;;;9.03;8.13;;;;;;;9.76;100.00;102930.66;5034070;28;20467;-47
2023/05/20 00:10:50;;;;;;;8.30;7.40;;;;;;;9.77;100.00;102933.16;5033459;28;20464;-45
2023/05/20 00:13:17;;;;;;;9.43;8.33;;;;;;;9.77;100.00;102929.66;5033924;28;20806;-45
2023/05/20 00:15:45;;;;;;;11.80;9.27;;;;;;;9.76;100.00;102938.66;5033777;28;20428;-44
2023/05/20 00:18:13;;;;;;;10.37;9.27;;;;;;;9.72;100.00;102937.22;5033942;28;20478;-43
2023/05/20 00:20:41;;;;;;;8.70;7.87;;;;;;;9.71;100.00;102940.88;5033320;28;20534;-45
2023/05/20 00:23:08;;;;;;;9.03;8.13;;;;;;;9.72;100.00;102946.06;5033437;28;20829;-43
2023/05/20 00:25:37;;;;;;;8.87;7.93;;;;;;;9.70;100.00;102942.72;5033497;28;20466;-48
2023/05/20 00:28:06;;;;;;;8.33;7.67;;;;;;;9.73;100.00;102936.25;5031586;28;20432;-44
2023/05/20 00:30:33;;;;;;;8.33;7.73;;;;;;;9.74;100.00;102935.25;5033009;28;21171;-44
2023/05/20 00:33:01;;;;;;;9.70;8.83;;;;;;;9.74;100.00;102945.91;5033365;28;20535;-43
2023/05/20 00:35:29;;;;;;;15.10;8.30;;;;;;;9.73;100.00;102938.94;5033583;28;20432;-44
2023/05/20 00:37:56;;;;;;;8.90;8.03;;;;;;;9.69;100.00;102935.69;5033352;28;20539;-41
2023/05/20 00:40:24;;;;;;;9.40;8.60;;;;;;;9.67;100.00;102936.81;5032966;28;21015;-43
2023/05/20 00:42:54;;;;;;;9.37;8.50;;;;;;;9.67;100.00;102932.34;5033011;28;20456;-44
2023/05/20 00:45:22;;;;;;;9.30;8.40;;;;;;;9.64;100.00;102927.28;5033402;28;20478;-44
2023/05/20 00:47:50;;;;;;;11.97;8.13;;;;;;;9.61;100.00;102924.88;5033324;28;20511;-44
2023/05/20 00:50:18;;;;;;;9.03;8.23;;;;;;;9.59;100.00;102928.66;5032702;28;20464;-45
2023/05/20 00:52:47;;;;;;;9.80;7.50;;;;;;;9.57;100.00;102925.28;5032867;28;20456;-44
2023/05/20 00:55:14;;;;;;;8.87;8.17;;;;;;;9.56;100.00;102924.44;5033309;28;20428;-42
2023/05/20 00:57:42;;;;;;;7.80;7.30;;;;;;;9.53;100.00;102934.53;5033240;28;20436;-44
2023/05/20 01:00:13;;;;;;;8.83;8.00;;;;;;;9.51;100.00;102926.69;5032499;28;20558;-43
2023/05/20 01:02:41;;;;;;;8.50;7.83;;;;;;;9.48;100.00;102926.09;5032666;28;20449;-43
2023/05/20 01:05:09;;;;;;;8.90;8.30;;;;;;;9.46;100.00;102926.25;5033138;28;20472;-47
2023/05/20 01:07:38;;;;;;;9.17;8.20;;;;;;;9.46;100.00;102928.91;5033026;28;20514;-44
2023/05/20 01:10:06;;;;;;;7.77;7.07;;;;;;;9.44;100.00;102926.38;5032349;28;20479;-43
2023/05/20 01:12:39;;;;;;;8.27;7.47;;;;;;;9.43;100.00;102924.72;5032599;28;20622;-45
2023/05/20 01:15:10;;;;;;;7.27;6.70;;;;;;;9.44;100.00;102917.53;5032771;28;21029;-43
2023/05/20 01:17:43;;;;;;;8.33;7.73;;;;;;;9.41;100.00;102916.00;5032656;28;20487;-41
2023/05/20 01:20:13;;;;;;;7.60;7.10;;;;;;;9.36;100.00;102920.88;5032089;28;20506;-43
2023/05/20 01:22:48;;;;;;;8.70;6.90;;;;;;;9.33;100.00;102923.81;5032233;28;20815;-44
2023/05/20 01:25:16;;;;;;;6.30;5.80;;;;;;;9.33;100.00;102928.31;5032507;28;20431;-43
2023/05/20 01:27:45;;;;;;;6.80;6.33;;;;;;;9.30;100.00;102923.25;5029435;28;20442;-44
2023/05/20 01:30:14;;;;;;;6.80;6.37;;;;;;;9.28;100.00;102926.06;5032060;28;20853;-43
2023/05/20 01:32:46;;;;;;;7.53;6.93;;;;;;;9.29;100.00;102929.53;5032287;28;20452;-43
2023/05/20 01:35:15;;;;;;;8.20;7.70;;;;;;;9.28;100.00;102927.88;5032440;28;20527;-43
2023/05/20 01:37:44;;;;;;;7.33;6.93;;;;;;;9.27;100.00;102926.19;5032312;28;20439;-45
2023/05/20 01:40:15;;;;;;;6.90;6.30;;;;;;;9.23;100.00;102920.28;5031864;28;20570;-43
2023/05/20 01:42:44;;;;;;;6.80;6.30;;;;;;;9.16;100.00;102919.16;5032223;28;20468;-46
2023/05/20 01:45:12;;;;;;;7.23;6.63;;;;;;;9.12;100.00;102924.88;5032310;28;20433;-45
2023/05/20 01:47:40;;;;;;;7.03;6.63;;;;;;;9.06;100.00;102920.91;5032270;28;20436;-43
2023/05/20 01:50:08;;;;;;;7.00;6.60;;;;;;;9.03;100.00;102912.34;5031769;28;20488;-41
2023/05/20 01:52:36;;;;;;;6.13;5.73;;;;;;;8.99;100.00;102917.09;5031745;28;20456;-43
2023/05/20 01:55:05;;;;;;;7.07;6.30;;;;;;;8.97;100.00;102907.56;5031514;28;20432;-41
2023/05/20 01:57:34;;;;;;;6.83;6.33;;;;;;;8.91;100.00;102903.63;5032072;28;20440;-44
2023/05/20 02:00:02;;;;;;;7.13;6.57;;;;;;;8.87;100.00;102905.69;5031381;28;20555;-44
2023/05/20 02:02:30;;;;;;;6.13;5.67;;;;;;;8.88;100.00;102898.56;5031843;28;20892;-44
2023/05/20 02:04:58;;;;;;;7.10;6.47;;;;;;;8.88;100.00;102901.22;5032065;28;20526;-46
2023/05/20 02:07:25;;;;;;;12.17;6.20;;;;;;;8.86;100.00;102898.72;5031778;28;20432;-42
2023/05/20 02:09:53;;;;;;;6.97;6.57;;;;;;;8.86;100.00;102908.50;5031699;28;20456;-47
2023/05/20 02:12:21;;;;;;;6.67;6.17;;;;;;;8.84;100.00;102905.97;5031519;28;20451;-45
2023/05/20 02:14:50;;;;;;;6.37;5.80;;;;;;;8.85;100.00;102906.81;5031907;28;20432;-46
2023/05/20 02:17:17;;;;;;;5.40;5.20;;;;;;;8.84;100.00;102890.00;5031780;28;20468;-44
2023/05/20 02:19:45;;;;;;;5.77;5.37;;;;;;;8.83;100.00;102903.44;5031286;28;20492;-44
2023/05/20 02:22:13;;;;;;;5.67;5.30;;;;;;;8.85;100.00;102905.00;5031375;28;20522;-43
2023/05/20 02:24:42;;;;;;;6.33;5.73;;;;;;;8.88;100.00;102907.41;5031931;28;20495;-44
2023/05/20 02:27:10;;;;;;;5.23;5.03;;;;;;;8.94;100.00;102908.69;5028842;28;20491;-46
2023/05/20 02:29:38;;;;;;;5.90;5.60;;;;;;;8.98;100.00;102917.25;5031130;28;20795;-46
2023/05/20 02:32:07;;;;;;;6.00;5.50;;;;;;;8.99;100.00;102911.78;5031477;28;20422;-47
2023/05/20 02:34:35;;;;;;;5.40;5.10;;;;;;;8.98;100.00;102915.44;5034996;28;20794;-45
2023/05/20 02:37:03;;;;;;;5.43;5.10;;;;;;;9.01;100.00;102899.19;5035873;28;20498;-44
2023/05/20 02:39:30;;;;;;;5.87;5.37;;;;;;;9.01;100.00;102904.53;5035380;28;20490;-46
2023/05/20 02:41:58;;;;;;;5.93;5.53;;;;;;;9.04;100.00;102909.56;5035274;28;20468;-46
2023/05/20 02:44:26;;;;;;;5.90;5.60;;;;;;;9.06;100.00;102899.63;5035719;28;20424;-44
2023/05/20 02:46:53;;;;;;;5.57;5.20;;;;;;;9.07;100.00;102897.81;5035408;28;20921;-43
2023/05/20 02:49:23;;;;;;;6.30;5.80;;;;;;;9.09;100.00;102886.06;5035043;28;20986;-44
2023/05/20 02:51:50;;;;;;;5.77;5.20;;;;;;;9.08;100.00;102883.53;5035312;28;20474;-42
2023/05/20 02:54:18;;;;;;;5.90;5.50;;;;;;;9.09;100.00;102886.06;5035428;28;21033;-43
2023/05/20 02:56:46;;;;;;;6.10;5.80;;;;;;;9.06;100.00;102886.31;5035622;28;20432;-43
2023/05/20 02:59:14;;;;;;;5.80;5.40;;;;;;;9.06;100.00;102891.63;5034756;28;20471;-43
2023/05/20 03:01:42;;;;;;;5.97;5.60;;;;;;;9.02;100.00;102889.41;5034872;28;20476;-42
2023/05/20 03:04:10;;;;;;;5.73;5.43;;;;;;;9.00;100.00;102888.66;5035375;28;20463;-44
2023/05/20 03:06:43;;;;;;;6.63;6.30;;;;;;;9.02;100.00;102887.56;5035262;28;20522;-43
2023/05/20 03:09:11;;;;;;;5.90;5.40;;;;;;;9.03;100.00;102889.25;5034655;28;20431;-46
2023/05/20 03:11:39;;;;;;;6.80;6.30;;;;;;;9.03;100.00;102893.72;5035018;28;20498;-43
2023/05/20 03:14:06;;;;;;;5.73;5.53;;;;;;;9.07;100.00;102895.16;5034912;28;20452;-43
2023/05/20 03:16:35;;;;;;;6.10;5.80;;;;;;;9.08;100.00;102897.66;5035190;28;20440;-41
2023/05/20 03:19:02;;;;;;;7.70;5.57;;;;;;;9.13;100.00;102903.44;5034424;28;20470;-42
2023/05/20 03:21:31;;;;;;;6.37;5.87;;;;;;;9.13;100.00;102892.81;5034868;28;20475;-44
2023/05/20 03:24:00;;;;;;;5.90;5.70;;;;;;;9.13;100.00;102898.13;5034861;28;20456;-42
2023/05/20 03:26:29;;;;;;;5.97;5.57;;;;;;;9.16;100.00;102892.53;5031894;28;20460;-42
2023/05/20 03:28:57;;;;;;;5.70;5.50;;;;;;;9.22;100.00;102899.13;5034656;28;20938;-41
2023/05/20 03:31:24;;;;;;;6.53;6.13;;;;;;;9.22;100.00;102899.97;5034418;28;20941;-42
2023/05/20 03:33:52;;;;;;;6.20;5.80;;;;;;;9.28;100.00;102902.09;5034740;28;21314;-47
2023/05/20 03:36:20;;;;;;;5.87;5.57;;;;;;;9.38;100.00;102902.09;5034712;28;20523;-48
2023/05/20 03:38:48;;;;;;;6.03;5.73;;;;;;;9.42;100.00;102900.88;5034781;28;20759;-45
2023/05/20 03:41:17;;;;;;;7.20;6.57;;;;;;;9.49;100.00;102903.81;5033754;28;20563;-43
2023/05/20 03:43:44;;;;;;;6.03;5.70;;;;;;;9.49;100.00;102894.03;5033860;28;20483;-41
2023/05/20 03:46:12;;;;;;;7.07;6.40;;;;;;;9.58;100.00;102895.84;5034627;28;20486;-44
2023/05/20 03:48:40;;;;;;;6.60;6.20;;;;;;;9.66;100.00;102889.81;5034752;28;20443;-48
2023/05/20 03:51:08;;;;;;;5.90;5.60;;;;;;;9.72;100.00;102892.78;5033954;28;20456;-44
2023/05/20 03:53:35;;;;;;;6.23;5.90;;;;;;;9.82;100.00;102892.81;5034097;28;20463;-43
2023/05/20 03:56:04;;;;;;;6.40;6.10;;;;;;;9.80;100.00;102895.59;5034469;28;20522;-41
2023/05/20 03:58:34;;;;;;;6.10;5.90;;;;;;;9.80;100.00;102894.75;5034366;28;20436;-42
2023/05/20 04:01:01;;;;;;;6.70;6.33;;;;;;;9.90;100.00;102893.78;5033588;28;20476;-43
2023/05/20 04:03:30;;;;;;;7.53;6.93;;;;;;;9.92;100.00;102889.16;5033966;28;20810;-48
2023/05/20 04:05:58;;;;;;;6.57;6.17;;;;;;;9.94;100.00;102883.69;5034126;28;20520;-46
2023/05/20 04:08:25;;;;;;;7.00;6.43;;;;;;;9.98;100.00;102885.91;5034085;28;20432;-42
2023/05/20 04:10:55;;;;;;;7.23;6.83;;;;;;;9.94;100.00;102884.53;5033680;28;21070;-48
2023/05/20 04:13:25;;;;;;;7.27;6.97;;;;;;;10.01;100.00;102885.63;5033874;28;20455;-43
2023/05/20 04:15:54;;;;;;;7.10;6.70;;;;;;;10.06;100.00;102881.72;5033825;28;20436;-46
2023/05/20 04:18:21;;;;;;;7.07;6.70;;;;;;;10.10;100.00;102883.09;5033953;28;20974;-43
2023/05/20 04:20:49;;;;;;;6.40;6.00;;;;;;;10.17;100.00;102886.91;5033110;28;20462;-43
2023/05/20 04:23:17;;;;;;;6.83;6.43;;;;;;;10.21;100.00;102891.00;5033784;28;20490;-43
2023/05/20 04:25:45;;;;;;;6.30;6.00;;;;;;;10.31;100.00;102890.00;5032264;28;20519;-43
2023/05/20 04:28:15;;;;;;;6.83;6.53;;;;;;;10.52;100.00;102896.00;5032643;28;20428;-44
2023/05/20 04:30:43;;;;;;;6.73;6.43;;;;;;;10.70;100.00;102895.22;5033197;28;20498;-44
2023/05/20 04:33:13;;;;;;;7.40;6.90;;;;;;;10.91;100.00;102887.84;5033242;28;20860;-47
2023/05/20 04:35:43;;;;;;;7.20;6.90;;;;;;;11.15;100.00;102879.31;5033453;28;20436;-47
2023/05/20 04:38:10;;;;;;;7.27;6.67;;;;;;;11.43;100.00;102878.31;5033525;28;20439;-43
2023/05/20 04:40:38;;;;;;;6.10;5.80;;;;;;;11.74;100.00;102885.00;5027381;28;20543;-43
2023/05/20 04:43:06;;;;;;;6.43;6.13;;;;;;;12.11;100.00;102877.69;5032963;28;20484;-43
2023/05/20 04:45:35;;;;;;;6.10;5.80;;;;;;;12.44;100.00;102876.09;5033270;28;20870;-45
2023/05/20 04:48:03;;;;;;;5.90;5.70;;;;;;;12.74;100.00;102880.97;5033498;28;20506;-45
2023/05/20 04:50:32;;;;;;;6.30;5.70;;;;;;;13.23;100.00;102879.34;5032702;28;20486;-46
2023/05/20 04:52:59;;;;;;;5.83;5.33;;;;;;;13.56;100.00;102874.13;5033056;28;20535;-46
2023/05/20 04:55:27;;;;;;;5.73;5.50;;;;;;;13.76;100.00;102864.75;5032354;28;20444;-45
2023/05/20 04:57:55;;;;;;;5.47;5.27;;;;;;;14.23;100.00;102871.13;5033216;28;20531;-45
2023/05/20 05:00:23;;;;;;;5.17;4.87;;;;;;;14.71;100.00;102862.19;5032355;28;20547;-42
2023/05/20 05:02:51;;;;;;;5.07;4.60;;;;;;;14.62;100.00;102862.38;5032966;28;20557;-49
2023/05/20 05:05:19;;;;;;;4.73;4.43;;;;;;;15.03;100.00;102861.22;5033025;28;20444;-45
2023/05/20 05:07:48;;;;;;;4.93;4.73;;;;;;;15.22;100.00;102866.19;5033102;28;21128;-47
2023/05/20 05:10:15;;;;;;;3.80;3.70;;;;;;;15.32;100.00;102861.41;5032426;28;20464;-47
2023/05/20 05:12:43;;;;;;;4.20;4.00;;;;;;;14.86;100.00;102865.81;5032703;28;20474;-46
2023/05/20 05:15:11;;;;;;;4.20;3.90;;;;;;;15.25;100.00;102870.38;5033325;28;20443;-45
2023/05/20 05:17:39;;;;;;;4.20;3.80;;;;;;;15.55;100.00;102852.56;5029301;28;20432;-46
2023/05/20 05:20:08;;;;;;;4.80;4.50;;;;;;;15.65;100.00;102851.31;5020991;28;20434;-43
2023/05/20 05:22:38;;;;;;;4.37;4.17;;;;;;;15.84;100.00;102860.78;5020591;28;20477;-45
2023/05/20 05:25:09;;;;;;;4.13;3.93;;;;;;;15.89;100.00;102861.06;5022659;28;20429;-45
2023/05/20 05:27:37;;;;;;;4.80;4.50;;;;;;;16.15;100.00;102855.31;5023528;28;20948;-46
2023/05/20 05:30:06;;;;;;;4.00;3.70;;;;;;;16.63;100.00;102857.56;5026201;28;20951;-41
2023/05/20 05:32:35;;;;;;;6.80;4.47;;;;;;;17.14;100.00;102853.06;5019114;28;20449;-45
2023/05/20 05:35:03;;;;;;;4.63;4.23;;;;;;;17.24;100.00;102850.03;5018144;28;20425;-44
2023/05/20 05:37:33;;;;;;;3.83;3.63;;;;;;;17.72;99.58;102845.81;5014632;28;20441;-44
2023/05/20 05:40:01;;;;;;;4.03;3.83;;;;;;;18.22;100.00;102848.34;5018123;28;20930;-45
2023/05/20 05:42:30;;;;;;;3.70;3.50;;;;;;;18.39;88.58;102857.00;5010683;28;20480;-47
2023/05/20 05:44:59;;;;;;;4.27;3.93;;;;;;;19.06;87.26;102847.22;5011282;28;20483;-42
2023/05/20 05:47:31;;;;;;;3.10;2.90;;;;;;;19.28;82.72;102842.53;5013203;28;20877;-44
2023/05/20 05:49:59;;;;;;;4.50;4.30;;;;;;;19.01;81.59;102836.19;5015573;28;20443;-44
2023/05/20 05:52:27;;;;;;;4.23;4.03;;;;;;;19.03;80.53;102831.41;5019883;28;20484;-45
2023/05/20 05:54:55;;;;;;;4.77;3.70;;;;;;;19.55;83.36;102838.88;5013832;28;20938;-46
2023/05/20 05:57:22;;;;;;;4.97;4.30;;;;;;;19.76;76.92;102836.00;5015738;28;20451;-41
2023/05/20 05:59:51;;;;;;;3.90;3.70;;;;;;;20.11;76.20;102831.22;5011577;28;20436;-42
2023/05/20 06:02:19;;;;;;;3.60;3.33;;;;;;;20.25;75.11;102827.47;5024597;28;20548;-46
2023/05/20 06:04:47;;;;;;;3.90;3.57;;;;;;;20.31;71.11;102825.78;5022278;28;20491;-42
2023/05/20 06:07:15;;;;;;;3.70;3.40;;;;;;;20.38;75.89;102830.19;5021702;28;20437;-40
2023/05/20 06:09:43;;;;;;;3.20;3.00;;;;;;;20.40;70.79;102833.50;5017831;28;20984;-42
2023/05/20 06:12:10;;;;;;;4.40;3.43;;;;;;;21.06;67.25;102841.44;5021626;28;20494;-42
2023/05/20 06:14:40;;;;;;;3.17;2.97;;;;;;;21.21;66.35;102835.75;5015499;28;20437;-42
2023/05/20 06:17:09;;;;;;;3.00;2.83;;;;;;;21.60;62.83;102842.84;5009041;28;20563;-42
2023/05/20 06:19:37;;;;;;;3.00;2.90;;;;;;;21.85;62.47;102854.59;5020617;28;20499;-42
2023/05/20 06:22:05;;;;;;;2.90;2.80;;;;;;;21.88;56.52;102846.88;5009782;28;20476;-41
2023/05/20 06:24:34;;;;;;;2.77;2.50;;;;;;;21.55;54.43;102848.09;5013808;28;20463;-43
2023/05/20 06:27:02;;;;;;;3.50;3.20;;;;;;;22.05;52.98;102861.56;5016040;28;20516;-43
2023/05/20 06:29:30;;;;;;;2.63;2.43;;;;;;;22.09;53.06;102851.09;5026356;28;20785;-43
2023/05/20 06:31:58;;;;;;;2.53;2.40;;;;;;;21.79;51.75;102853.59;5021290;28;20456;-44
2023/05/20 06:34:27;;;;;;;3.50;3.20;;;;;;;21.70;50.37;102846.75;5030261;28;20439;-43
2023/05/20 06:36:55;;;;;;;2.93;2.73;;;;;;;21.32;50.53;102854.09;5018577;28;20468;-46
2023/05/20 06:39:22;;;;;;;2.83;2.63;;;;;;;21.03;51.69;102858.13;5024721;28;20511;-48
2023/05/20 06:41:50;;;;;;;2.93;2.70;;;;;;;21.17;51.47;102853.53;5016994;28;20464;-45
2023/05/20 06:44:18;;;;;;;4.13;2.80;;;;;;;21.48;51.37;102848.97;5028287;28;20815;-44
2023/05/20 06:46:46;;;;;;;3.10;2.90;;;;;;;21.71;51.35;102861.16;5021771;28;20444;-48
2023/05/20 06:49:14;;;;;;;3.50;3.20;;;;;;;21.46;51.87;102851.09;5016282;28;20433;-45
2023/05/20 06:51:43;;;;;;;6.13;3.27;;;;;;;21.36;52.35;102848.00;5015586;28;20883;-42
2023/05/20 06:54:11;;;;;;;3.23;2.90;;;;;;;21.57;50.43;102830.53;5015622;28;20444;-44
2023/05/20 06:56:39;;;;;;;3.47;3.27;;;;;;;21.33;51.17;102848.44;5017520;28;20460;-44
2023/05/20 06:59:06;;;;;;;2.80;2.60;;;;;;;21.05;52.04;102856.06;5015906;28;20511;-42
2023/05/20 07:01:34;;;;;;;2.70;2.60;;;;;;;21.06;52.80;102840.59;5018523;28;20470;-46
2023/05/20 07:04:02;;;;;;;2.60;2.40;;;;;;;21.36;53.41;102849.88;5014546;28;20861;-45
2023/05/20 07:06:30;;;;;;;3.33;3.00;;;;;;;21.46;53.50;102842.09;5026096;28;20460;-43
2023/05/20 07:08:59;;;;;;;2.90;2.70;;;;;;;21.57;52.43;102851.44;5022500;28;20503;-50
2023/05/20 07:11:27;;;;;;;4.80;2.30;;;;;;;21.47;53.30;102849.22;5024564;28;20502;-47
2023/05/20 07:13:56;;;;;;;4.00;2.83;;;;;;;21.20;53.38;102853.94;5010816;28;20531;-48
2023/05/20 07:16:23;;;;;;;3.13;2.93;;;;;;;21.36;53.62;102845.28;5021628;28;20956;-46
2023/05/20 07:18:51;;;;;;;3.00;2.70;;;;;;;21.34;54.11;102844.69;5019826;28;20502;-43
2023/05/20 07:21:19;;;;;;;3.00;2.80;;;;;;;20.93;55.38;102845.06;5013601;28;20467;-45
2023/05/20 07:23:47;;;;;;;3.37;2.93;;;;;;;21.07;57.07;102848.53;5029022;28;20511;-46
2023/05/20 07:26:15;;;;;;;3.53;3.33;;;;;;;21.21;57.11;102855.59;5021599;28;20451;-45
2023/05/20 07:28:44;;;;;;;3.30;3.10;;;;;;;20.78;58.65;102841.78;5031403;28;20439;-42
2023/05/20 07:31:12;;;;;;;3.70;3.13;;;;;;;21.25;58.38;102834.28;5024152;28;20540;-46
2023/05/20 07:33:40;;;;;;;3.50;3.20;;;;;;;20.95;58.02;102845.66;5027925;28;20443;-44
2023/05/20 07:36:07;;;;;;;3.00;2.80;;;;;;;20.83;59.12;102831.09;5015605;28;20480;-42
2023/05/20 07:38:37;;;;;;;3.27;3.07;;;;;;;20.94;58.50;102825.00;5021737;28;20523;-45
2023/05/20 07:41:08;;;;;;;3.00;2.80;;;;;;;20.94;59.25;102827.72;5030407;28;20988;-45
2023/05/20 07:43:37;;;;;;;3.50;3.30;;;;;;;20.77;59.34;102829.25;5023160;28;20476;-45
2023/05/20 07:46:04;;;;;;;3.90;2.97;;;;;;;20.45;59.99;102822.03;5015496;28;20527;-43
2023/05/20 07:48:32;;;;;;;3.63;3.33;;;;;;;19.82;60.80;102818.94;5025406;28;20433;-47
2023/05/20 07:51:00;;;;;;;4.33;3.70;;;;;;;19.68;62.22;102817.22;5030015;28;20467;-44
2023/05/20 07:53:27;;;;;;;2.60;2.40;;;;;;;19.75;64.68;102830.78;5026842;28;20457;-45
2023/05/20 07:55:56;;;;;;;4.63;4.13;;;;;;;19.01;67.72;102838.88;5020109;28;20456;-42
2023/05/20 07:58:23;;;;;;;3.53;3.00;;;;;;;18.98;69.64;102824.94;5025489;28;20429;-42
2023/05/20 08:00:52;;;;;;;3.30;3.00;;;;;;;18.83;74.13;102833.19;5022779;28;20579;-43
2023/05/20 08:03:21;;;;;;;3.97;3.77;;;;;;;18.62;78.01;102828.72;5029802;28;20475;-46
2023/05/20 08:05:49;;;;;;;4.07;3.20;;;;;;;18.28;80.64;102827.84;5025765;28;20440;-48
2023/05/20 08:08:17;;;;;;;4.47;4.17;;;;;;;18.17;81.44;102835.44;5023656;28;20437;-42
2023/05/20 08:10:45;;;;;;;4.23;3.93;;;;;;;18.00;83.09;102835.91;5024337;28;20535;-47
2023/05/20 08:13:12;;;;;;;4.50;4.10;;;;;;;17.89;83.62;102825.66;5024939;28;21004;-47
2023/05/20 08:15:40;;;;;;;7.93;7.20;;;;;;;17.75;90.80;102840.03;5025291;28;20474;-44
2023/05/20 08:18:09;;;;;;;5.10;4.70;;;;;;;17.76;90.42;102822.81;5020072;28;20432;-41
2023/05/20 08:20:37;;;;;;;6.97;5.13;;;;;;;17.49;94.60;102832.50;5028143;28;20461;-43
2023/05/20 08:23:05;;;;;;;5.20;4.70;;;;;;;17.75;93.22;102831.94;5013692;28;20456;-42
2023/05/20 08:25:32;;;;;;;4.57;4.17;;;;;;;17.97;93.67;102820.94;5023810;28;20531;-46
2023/05/20 08:28:02;;;;;;;5.43;3.70;;;;;;;18.09;91.90;102824.78;5027973;28;20436;-45
2023/05/20 08:30:30;;;;;;;4.30;4.00;;;;;;;18.17;93.14;102824.63;5020401;28;20483;-46
2023/05/20 08:32:58;;;;;;;4.07;3.77;;;;;;;18.09;94.89;102822.09;5021727;28;20521;-48
2023/05/20 08:35:27;;;;;;;4.13;3.93;;;;;;;17.67;98.84;102824.81;5007268;28;20437;-45
2023/05/20 08:37:55;;;;;;;5.90;4.37;;;;;;;17.60;97.42;102821.22;5016512;28;20909;-44
2023/05/20 08:40:23;;;;;;;4.70;4.40;;;;;;;17.47;100.00;102831.88;5016471;28;20466;-44
2023/05/20 08:42:52;;;;;;;4.90;4.50;;;;;;;17.29;100.00;102824.19;5030316;28;20463;-42
2023/05/20 08:45:25;;;;;;;5.13;4.70;;;;;;;17.25;100.00;102820.19;5024006;28;20881;-42
2023/05/20 08:47:53;;;;;;;8.07;4.77;;;;;;;17.12;100.00;102828.97;5015490;28;20426;-44
2023/05/20 08:50:21;;;;;;;4.83;4.43;;;;;;;17.26;100.00;102821.03;5021125;28;20442;-44
2023/05/20 08:52:50;;;;;;;5.13;4.57;;;;;;;17.00;100.00;102818.84;5030276;28;20483;-43
2023/05/20 08:55:23;;;;;;;6.87;4.80;;;;;;;16.98;100.00;102832.53;5014046;28;20893;-43
2023/05/20 08:57:53;;;;;;;8.90;4.80;;;;;;;17.06;100.00;102820.78;5006287;28;20866;-43
2023/05/20 09:00:25;;;;;;;5.00;4.60;;;;;;;17.08;100.00;102819.56;5019632;28;20482;-42
2023/05/20 09:02:53;;;;;;;4.43;4.10;;;;;;;17.30;100.00;102808.84;5012761;28;20950;-42
2023/05/20 09:05:22;;;;;;;3.80;3.50;;;;;;;17.24;100.00;102813.13;5025612;28;20501;-42
2023/05/20 09:07:51;;;;;;;4.67;4.27;;;;;;;17.25;100.00;102819.38;5013081;28;20455;-43
2023/05/20 09:10:19;;;;;;;5.07;3.67;;;;;;;17.23;100.00;102807.94;5013527;28;20432;-48
2023/05/20 09:12:47;;;;;;;3.80;3.50;;;;;;;17.26;100.00;102808.41;5018888;28;20459;-47
2023/05/20 09:15:15;;;;;;;3.67;3.47;;;;;;;17.22;99.10;102806.25;5024692;28;20528;-47
2023/05/20 09:17:43;;;;;;;5.00;3.93;;;;;;;17.25;96.09;102804.03;5016839;28;20483;-46
2023/05/20 09:20:11;;;;;;;3.90;3.60;;;;;;;17.28;92.88;102792.00;5017516;28;20437;-46
2023/05/20 09:22:39;;;;;;;4.70;4.20;;;;;;;17.35;92.26;102795.63;5021308;28;20453;-43
2023/05/20 09:25:11;;;;;;;4.73;4.20;;;;;;;17.36;91.45;102794.59;5021207;28;20512;-49
2023/05/20 09:27:39;;;;;;;4.20;3.50;;;;;;;17.28;90.58;102789.31;5024529;28;20468;-45
2023/05/20 09:30:11;;;;;;;4.20;3.90;;;;;;;17.64;91.60;102798.22;5020588;28;20468;-43
2023/05/20 09:32:39;;;;;;;5.77;3.80;;;;;;;17.64;85.63;102795.53;5021493;28;20456;-46
2023/05/20 09:35:08;;;;;;;3.33;3.10;;;;;;;17.45;89.48;102796.13;5026046;28;20428;-43
2023/05/20 09:37:36;;;;;;;5.77;4.37;;;;;;;17.44;89.08;102794.47;5019457;28;20460;-45
2023/05/20 09:40:08;;;;;;;3.90;3.70;;;;;;;17.30;90.48;102798.03;5013834;28;20923;-45
2023/05/20 09:42:40;;;;;;;3.83;3.63;;;;;;;17.52;89.72;102791.66;5021467;28;20460;-44
2023/05/20 09:45:09;;;;;;;4.33;3.83;;;;;;;17.51;92.01;102789.97;5022871;28;20502;-44
2023/05/20 09:47:39;;;;;;;4.67;4.17;;;;;;;17.38;93.14;102793.34;5016881;28;20812;-42
2023/05/20 09:50:08;;;;;;;4.27;4.07;;;;;;;17.59;88.01;102788.00;5005752;28;20443;-45
2023/05/20 09:52:37;;;;;;;4.60;4.30;;;;;;;17.49;89.60;102784.78;5020581;28;20989;-45
2023/05/20 09:55:07;;;;;;;4.30;4.00;;;;;;;17.52;87.71;102792.50;5014844;28;20460;-43
2023/05/20 09:57:35;;;;;;;3.63;3.43;;;;;;;17.60;87.85;102788.84;5018101;28;20440;-44
2023/05/20 10:00:07;;;;;;;4.43;4.13;;;;;;;17.43;92.80;102779.31;5017508;28;20973;-46
2023/05/20 10:02:36;;;;;;;5.77;4.40;;;;;;;17.77;91.63;102765.13;5004658;28;20470;-43
2023/05/20 10:05:11;;;;;;;4.63;4.33;;;;;;;17.77;88.09;102779.44;5018533;28;20503;-45
2023/05/20 10:08:10;;;;;;;6.23;3.80;;;;;;;17.65;80.83;102798.03;5022541;28;20459;-45
2023/05/20 10:10:46;;;;;;;4.50;4.20;;;;;;;17.68;77.87;102773.34;5022099;28;20509;-42
2023/05/20 10:13:25;;;;;;;4.00;3.80;;;;;;;17.90;79.21;102786.81;5020281;28;20539;-45
2023/05/20 10:16:02;;;;;;;4.30;3.90;;;;;;;17.89;79.06;102772.47;5023518;28;20531;-45
2023/05/20 10:18:43;;;;;;;3.90;3.70;;;;;;;18.11;nan;102771.41;5028950;28;20428;-43
2023/05/20 10:21:21;;;;;;;4.80;4.40;;;;;;;17.97;77.33;102777.75;5022090;28;20464;-43
2023/05/20 10:23:48;;;;;;;3.80;3.47;;;;;;;17.82;76.21;102776.19;5016251;28;20518;-43
2023/05/20 10:26:16;;;;;;;3.93;3.83;;;;;;;17.68;73.20;102780.63;5021169;28;20881;-45
2023/05/20 10:28:45;;;;;;;3.90;3.70;;;;;;;17.83;73.26;102772.47;5029130;28;20935;-42
2023/05/20 10:31:18;;;;;;;4.20;4.00;;;;;;;17.81;76.45;102771.78;5020471;28;20543;-43
2023/05/20 10:33:47;;;;;;;3.83;3.63;;;;;;;18.13;75.53;102765.81;5024504;28;20500;-43
2023/05/20 10:36:26;;;;;;;4.10;3.80;;;;;;;18.45;70.71;102765.19;5010775;28;20548;-43
2023/05/20 10:38:54;;;;;;;3.80;3.60;;;;;;;18.47;69.06;102764.97;5012036;28;20432;-44
2023/05/20 10:41:25;;;;;;;3.97;3.60;;;;;;;18.12;66.83;102759.59;5011298;28;20460;-43
2023/05/20 10:44:03;;;;;;;3.83;3.63;;;;;;;18.26;64.42;102760.50;5011629;28;20460;-43
2023/05/20 10:46:33;;;;;;;3.67;3.37;;;;;;;17.84;64.56;102755.22;5011854;28;20476;-44
2023/05/20 10:49:21;;;;;;;3.40;3.30;;;;;;;17.98;65.89;102743.50;5011758;28;20930;-42
2023/05/20 10:51:54;;;;;;;4.57;3.80;;;;;;;18.28;64.95;102734.13;5010691;28;20465;-43
2023/05/20 10:54:22;;;;;;;3.90;3.60;;;;;;;18.56;65.25;102732.22;5013026;28;20809;-46
2023/05/20 10:56:52;;;;;;;3.67;3.10;;;;;;;18.40;64.89;102732.53;5015630;28;20442;-45
2023/05/20 10:59:21;;;;;;;4.10;3.80;;;;;;;18.10;63.65;102733.78;5015960;28;20436;-44
2023/05/20 11:01:51;;;;;;;4.50;4.10;;;;;;;18.21;64.24;102730.56;5012444;28;21067;-43
2023/05/20 11:04:19;;;;;;;4.43;4.03;;;;;;;18.13;63.01;102731.53;5015525;28;20559;-45
2023/05/20 11:06:51;;;;;;;4.23;3.80;;;;;;;18.19;63.11;102727.22;5014914;28;20472;-44
2023/05/20 11:09:18;;;;;;;3.77;3.47;;;;;;;18.17;63.04;102740.94;5015325;28;20435;-47
2023/05/20 11:11:46;;;;;;;4.93;4.00;;;;;;;18.20;61.85;102721.63;5014903;28;20464;-42
2023/05/20 11:14:16;;;;;;;4.17;3.90;;;;;;;18.44;63.24;102733.81;5015404;28;20918;-46
2023/05/20 11:16:44;;;;;;;3.50;3.37;;;;;;;18.69;60.99;102729.59;5015300;28;20510;-43
2023/05/20 11:19:16;;;;;;;4.27;3.90;;;;;;;18.93;60.37;102712.00;5015239;28;20432;-43
2023/05/20 11:21:44;;;;;;;5.43;3.97;;;;;;;19.02;60.05;102737.81;5013994;28;20842;-45
2023/05/20 11:24:12;;;;;;;4.33;4.03;;;;;;;18.92;59.42;102721.13;5015151;28;20543;-45
2023/05/20 11:26:40;;;;;;;3.90;3.70;;;;;;;18.93;59.72;102700.34;5020975;28;20506;-41
2023/05/20 11:29:08;;;;;;;5.13;4.20;;;;;;;18.73;59.50;102716.50;5034725;28;20945;-48
2023/05/20 11:31:37;;;;;;;5.90;4.57;;;;;;;18.94;62.60;102712.81;5031947;28;20472;-48